createdAt,value
2022-09-12T00:04:28.700Z,29.23
2022-09-12T00:09:30.584Z,24.70
2022-09-12T00:14:31.254Z,26.85
2022-09-12T00:19:31.982Z,25.55
2022-09-12T00:24:34.323Z,28.92
2022-09-12T00:29:34.907Z,44.47
2022-09-12T00:34:37.146Z,29.48
2022-09-12T00:39:39.166Z,32.10
2022-09-12T00:44:45.725Z,26.67
2022-09-12T00:49:50.803Z,31.80
2022-09-12T00:54:58.234Z,32.25
2022-09-12T01:00:02.767Z,30.50
2022-09-12T01:05:03.364Z,34.95
2022-09-12T01:10:06.453Z,38.80
2022-09-12T01:15:07.552Z,33.08
2022-09-12T01:20:28.357Z,32.47
2022-09-12T01:25:36.348Z,35.03
2022-09-12T01:30:49.137Z,38.53
2022-09-12T01:36:03.644Z,34.90
2022-09-12T01:41:12.711Z,36.28
2022-09-12T01:46:18.475Z,36.40
2022-09-12T01:51:26.234Z,36.50
2022-09-12T01:56:29.691Z,33.65
2022-09-12T02:01:34.065Z,36.17
2022-09-12T02:06:39.477Z,33.58
2022-09-12T02:11:45.333Z,31.90
2022-09-12T02:16:50.892Z,37.33
2022-09-12T02:21:55.273Z,34.10
2022-09-12T02:26:58.817Z,31.08
2022-09-12T02:32:05.780Z,32.28
2022-09-12T02:37:14.084Z,31.95
2022-09-12T02:42:14.825Z,29.55
2022-09-12T02:47:22.912Z,32.47
2022-09-12T02:52:23.741Z,32.38
2022-09-12T02:57:24.311Z,37.50
2022-09-12T03:02:33.273Z,34.45
2022-09-12T03:07:50.693Z,38.00
2022-09-12T03:13:02.285Z,31.63
2022-09-12T03:18:21.006Z,33.28
2022-09-12T03:23:30.246Z,36.72
2022-09-12T03:28:32.318Z,35.28
2022-09-12T03:33:34.339Z,33.08
2022-09-12T03:38:34.889Z,35.42
2022-09-12T03:43:35.489Z,39.53
2022-09-12T03:48:37.504Z,36.42
2022-09-12T03:53:38.287Z,42.88
2022-09-12T03:58:39.470Z,34.90
2022-09-12T04:03:42.093Z,31.42
2022-09-12T04:08:43.723Z,41.42
2022-09-12T04:13:46.187Z,33.85
2022-09-12T04:18:48.394Z,35.92
2022-09-12T04:23:49.541Z,34.15
2022-09-12T04:28:54.657Z,36.50
2022-09-12T04:33:57.885Z,37.45
2022-09-12T04:39:00.273Z,35.97
2022-09-12T04:44:03.147Z,39.03
2022-09-12T04:49:05.895Z,31.88
2022-09-12T04:54:09.003Z,35.95
2022-09-12T04:59:11.342Z,38.30
2022-09-12T05:04:14.381Z,38.97
2022-09-12T05:09:15.854Z,33.15
2022-09-12T05:14:16.445Z,37.58
2022-09-12T05:19:19.392Z,35.75
2022-09-12T05:24:20.094Z,35.20
2022-09-12T05:29:20.681Z,30.70
2022-09-12T05:34:23.385Z,25.65
2022-09-12T05:39:24.617Z,35.15
2022-09-12T05:44:25.566Z,28.17
2022-09-12T05:49:27.612Z,28.40
2022-09-12T05:54:31.490Z,25.20
2022-09-12T05:59:32.864Z,28.42
2022-09-12T06:04:34.766Z,31.15
2022-09-12T06:09:35.462Z,33.58
2022-09-12T06:14:36.247Z,31.40
2022-09-12T06:19:38.123Z,30.33
2022-09-12T06:24:38.750Z,31.63
2022-09-12T06:29:39.464Z,33.35
2022-09-12T06:34:41.625Z,28.10
2022-09-12T06:39:42.245Z,31.35
2022-09-12T06:44:42.860Z,28.80
2022-09-12T06:49:44.773Z,30.70
2022-09-12T06:54:46.366Z,27.33
2022-09-12T06:59:46.925Z,30.98
2022-09-12T07:04:49.995Z,28.00
2022-09-12T07:09:50.598Z,32.08
2022-09-12T07:14:51.162Z,31.40
2022-09-12T07:19:53.072Z,29.05
2022-09-12T07:24:54.083Z,27.13
2022-09-12T07:29:55.013Z,30.63
2022-09-12T07:34:56.916Z,27.52
2022-09-12T07:39:57.743Z,22.35
2022-09-12T07:44:58.399Z,20.38
2022-09-12T07:50:00.357Z,19.13
2022-09-12T07:55:00.984Z,23.33
2022-09-12T08:00:01.604Z,19.73
2022-09-12T08:05:03.655Z,19.27
2022-09-12T08:10:04.674Z,15.43
2022-09-12T08:15:06.282Z,15.20
2022-09-12T08:20:09.281Z,13.32
2022-09-12T08:25:10.493Z,15.80
2022-09-12T08:30:12.215Z,15.30
2022-09-12T08:35:15.092Z,18.58
2022-09-12T08:40:18.981Z,9.70
2022-09-12T08:45:24.240Z,13.20
2022-09-12T08:50:26.258Z,13.15
2022-09-12T08:55:32.124Z,8.55
2022-09-12T09:00:42.272Z,10.90
2022-09-12T09:05:51.278Z,11.95
2022-09-12T09:10:58.402Z,7.57
2022-09-12T09:16:09.918Z,11.57
2022-09-12T09:21:23.477Z,10.57
2022-09-12T09:26:29.105Z,10.40
2022-09-12T09:31:34.368Z,8.65
2022-09-12T09:36:45.547Z,10.15
2022-09-12T09:41:53.735Z,7.13
2022-09-12T09:46:56.916Z,7.13
2022-09-12T09:52:00.978Z,8.00
2022-09-12T09:57:01.659Z,5.18
2022-09-12T10:02:04.891Z,5.13
2022-09-12T10:07:07.448Z,4.90
2022-09-12T10:12:22.085Z,6.97
2022-09-12T10:17:28.699Z,3.50
2022-09-12T10:22:33.885Z,5.90
2022-09-12T10:27:36.635Z,5.80
2022-09-12T10:32:42.206Z,5.55
2022-09-12T10:37:53.688Z,4.97
2022-09-12T10:42:56.381Z,3.38
2022-09-12T10:48:02.084Z,4.82
2022-09-12T10:53:20.725Z,4.55
2022-09-12T10:58:46.072Z,7.00
2022-09-12T11:04:05.425Z,3.33
2022-09-12T11:09:16.814Z,4.25
2022-09-12T11:14:28.950Z,3.58
2022-09-12T11:19:56.082Z,4.30
2022-09-12T11:25:14.500Z,1.95
2022-09-12T11:30:17.463Z,2.15
2022-09-12T11:35:24.485Z,2.42
2022-09-12T11:40:33.252Z,1.77
2022-09-12T11:45:38.457Z,3.30
2022-09-12T11:50:39.030Z,1.90
2022-09-12T11:55:51.953Z,2.55
2022-09-12T12:00:56.304Z,5.43
2022-09-12T12:06:04.219Z,4.20
2022-09-12T12:11:08.788Z,2.08
2022-09-12T12:16:15.516Z,2.22
2022-09-12T12:21:40.586Z,2.13
2022-09-12T12:27:01.750Z,2.38
2022-09-12T12:32:21.200Z,1.55
2022-09-12T12:37:55.846Z,1.50
2022-09-12T12:43:20.306Z,4.88
2022-09-12T12:48:22.204Z,1.13
2022-09-12T12:53:27.685Z,1.80
2022-09-12T12:58:36.297Z,1.40
2022-09-12T13:03:38.766Z,1.75
2022-09-12T13:08:41.419Z,2.10
2022-09-12T13:13:51.251Z,3.95
2022-09-12T13:18:52.772Z,5.22
2022-09-12T13:24:02.097Z,2.65
2022-09-12T13:29:17.270Z,1.52
2022-09-12T13:34:21.427Z,3.50
2022-09-12T13:39:27.414Z,1.48
2022-09-12T13:44:30.565Z,1.83
2022-09-12T13:49:34.966Z,1.50
2022-09-12T13:54:39.849Z,1.10
2022-09-12T13:59:42.674Z,1.50
2022-09-12T14:05:05.813Z,1.45
2022-09-12T14:10:07.507Z,1.55
2022-09-12T14:15:18.112Z,2.35
2022-09-12T14:20:20.642Z,3.08
2022-09-12T14:25:25.134Z,1.00
2022-09-12T14:30:30.390Z,1.67
2022-09-12T14:35:32.487Z,2.60
2022-09-12T14:40:33.473Z,4.43
2022-09-12T14:45:35.446Z,1.55
2022-09-12T14:50:37.182Z,1.73
2022-09-12T14:55:45.172Z,2.67
2022-09-12T15:00:59.953Z,1.92
2022-09-12T15:06:02.853Z,0.93
2022-09-12T15:11:03.592Z,2.30
2022-09-12T15:16:05.800Z,0.88
2022-09-12T15:21:08.849Z,3.35
2022-09-12T15:26:12.607Z,4.20
2022-09-12T15:31:23.229Z,3.17
2022-09-12T15:36:31.351Z,1.15
2022-09-12T15:41:35.573Z,1.00
2022-09-12T15:46:37.671Z,1.38
2022-09-12T15:51:38.458Z,1.30
2022-09-12T15:56:39.049Z,1.42
2022-09-12T16:01:41.246Z,1.20
2022-09-12T16:06:41.966Z,3.83
2022-09-12T16:11:42.630Z,1.85
2022-09-12T16:16:46.195Z,3.80
2022-09-12T16:21:46.789Z,1.08
2022-09-12T16:26:47.370Z,3.63
2022-09-12T16:31:49.316Z,1.40
2022-09-12T16:36:49.997Z,3.88
2022-09-12T16:41:50.588Z,2.45
2022-09-12T16:46:52.900Z,3.45
2022-09-12T16:51:53.457Z,2.67
2022-09-12T16:56:54.125Z,5.15
2022-09-12T17:01:56.050Z,2.20
2022-09-12T17:06:59.383Z,2.45
2022-09-12T17:12:01.419Z,2.35
2022-09-12T17:17:04.742Z,2.55
2022-09-12T17:22:05.407Z,2.17
2022-09-12T17:27:06.334Z,1.90
2022-09-12T17:32:08.265Z,4.22
2022-09-12T17:37:09.563Z,3.47
2022-09-12T17:42:10.140Z,4.93
2022-09-12T17:47:12.025Z,5.10
2022-09-12T17:52:13.248Z,3.25
2022-09-12T17:57:14.361Z,3.95
2022-09-12T18:02:16.738Z,4.75
2022-09-12T18:07:19.881Z,2.80
2022-09-12T18:12:20.859Z,6.68
2022-09-12T18:17:23.868Z,7.07
2022-09-12T18:22:24.492Z,3.00
2022-09-12T18:27:25.404Z,2.70
2022-09-12T18:32:27.357Z,7.40
2022-09-12T18:37:28.064Z,8.00
2022-09-12T18:42:28.732Z,3.20
2022-09-12T18:47:30.713Z,3.55
2022-09-12T18:52:31.332Z,5.45
2022-09-12T18:57:34.973Z,3.60
2022-09-12T19:02:36.943Z,4.18
2022-09-12T19:07:38.818Z,3.65
2022-09-12T19:12:39.437Z,5.05
2022-09-12T19:17:41.418Z,6.97
2022-09-12T19:22:42.000Z,6.70
2022-09-12T19:27:42.610Z,4.75
2022-09-12T19:32:45.319Z,5.78
2022-09-12T19:37:46.473Z,4.47
2022-09-12T19:42:47.048Z,5.97
2022-09-12T19:47:49.078Z,5.70
2022-09-12T19:52:49.655Z,7.45
2022-09-12T19:57:50.267Z,9.23
2022-09-12T20:02:52.656Z,6.68
2022-09-12T20:07:53.425Z,4.68
2022-09-12T20:12:53.985Z,4.43
2022-09-12T20:17:56.949Z,4.93
2022-09-12T20:22:57.534Z,5.65
2022-09-12T20:28:00.155Z,4.40
2022-09-12T20:33:02.397Z,7.70
2022-09-12T20:38:03.000Z,6.10
2022-09-12T20:43:03.648Z,8.93
2022-09-12T20:48:05.630Z,4.70
2022-09-12T20:53:06.244Z,5.60
2022-09-12T20:58:06.881Z,7.70
2022-09-12T21:03:09.196Z,4.60
2022-09-12T21:08:10.064Z,5.13
2022-09-12T21:13:11.070Z,5.10
2022-09-12T21:18:12.957Z,7.95
2022-09-12T21:23:13.526Z,5.65
2022-09-12T21:28:14.271Z,5.07
2022-09-12T21:33:16.346Z,5.43
2022-09-12T21:38:17.755Z,7.75
2022-09-12T21:43:18.319Z,5.85
2022-09-12T21:48:20.204Z,8.88
2022-09-12T21:53:20.764Z,8.18
2022-09-12T21:58:21.354Z,7.45
2022-09-12T22:03:23.265Z,7.38
2022-09-12T22:08:23.818Z,9.15
2022-09-12T22:13:24.385Z,4.85
2022-09-12T22:18:26.299Z,4.47
2022-09-12T22:23:43.632Z,4.70
2022-09-12T22:28:44.744Z,8.70
2022-09-12T22:33:46.656Z,4.78
2022-09-12T22:38:47.287Z,4.68
2022-09-12T22:43:48.015Z,8.32
2022-09-12T22:48:49.907Z,5.75
2022-09-12T22:53:51.442Z,5.00
2022-09-12T22:58:52.063Z,6.43
2022-09-12T23:03:54.123Z,8.55
2022-09-12T23:08:56.111Z,7.53
2022-09-12T23:13:56.727Z,5.75
2022-09-12T23:18:59.107Z,7.55
2022-09-12T23:23:59.655Z,7.38
2022-09-12T23:29:02.455Z,6.78
2022-09-12T23:34:06.782Z,8.10
2022-09-12T23:39:07.378Z,7.60
2022-09-12T23:44:08.090Z,5.40
2022-09-12T23:49:10.134Z,5.72
2022-09-12T23:54:10.681Z,5.07
2022-09-12T23:59:11.224Z,6.80
